sensor_id;sensor_type;location;lat;lon;timestamp;P1;durP1;ratioP1;P2;durP2;ratioP2
215;SDS011;64590;48.81286795;9.14184224;2023-02-15T00:00:25;60.55;;;24.38;;
215;SDS011;64590;48.81286795;9.14184224;2023-02-15T00:02:52;50.75;;;23.63;;
215;SDS011;64590;48.81286795;9.14184224;2023-02-15T00:05:18;56.25;;;24.70;;
215;SDS011;64590;48.81286795;9.14184224;2023-02-15T00:07:45;54.03;;;25.25;;
215;SDS011;64590;48.81286795;9.14184224;2023-02-15T00:10:11;64.78;;;26.38;;
215;SDS011;64590;48.81286795;9.14184224;2023-02-15T00:12:39;50.35;;;24.80;;
215;SDS011;64590;48.81286795;9.14184224;2023-02-15T00:15:07;49.28;;;24.65;;
215;SDS011;64590;48.81286795;9.14184224;2023-02-15T00:17:34;55.30;;;26.80;;
215;SDS011;64590;48.81286795;9.14184224;2023-02-15T00:20:00;50.22;;;24.23;;
215;SDS011;64590;48.81286795;9.14184224;2023-02-15T00:22:27;52.97;;;25.48;;
215;SDS011;64590;48.81286795;9.14184224;2023-02-15T00:24:53;50.22;;;24.00;;
215;SDS011;64590;48.81286795;9.14184224;2023-02-15T00:27:20;48.95;;;24.02;;
215;SDS011;64590;48.81286795;9.14184224;2023-02-15T00:29:46;51.53;;;24.48;;
215;SDS011;64590;48.81286795;9.14184224;2023-02-15T00:32:15;58.13;;;25.10;;
215;SDS011;64590;48.81286795;9.14184224;2023-02-15T00:34:41;57.38;;;26.25;;
215;SDS011;64590;48.81286795;9.14184224;2023-02-15T00:37:08;54.85;;;25.58;;
215;SDS011;64590;48.81286795;9.14184224;2023-02-15T00:39:35;55.30;;;25.58;;
215;SDS011;64590;48.81286795;9.14184224;2023-02-15T00:42:01;51.53;;;24.40;;
215;SDS011;64590;48.81286795;9.14184224;2023-02-15T00:44:28;53.17;;;25.15;;
215;SDS011;64590;48.81286795;9.14184224;2023-02-15T00:46:55;54.35;;;24.52;;
215;SDS011;64590;48.81286795;9.14184224;2023-02-15T00:49:23;52.90;;;25.33;;
215;SDS011;64590;48.81286795;9.14184224;2023-02-15T00:51:50;53.42;;;24.60;;
215;SDS011;64590;48.81286795;9.14184224;2023-02-15T00:54:16;53.33;;;25.05;;
215;SDS011;64590;48.81286795;9.14184224;2023-02-15T00:56:43;53.60;;;25.17;;
215;SDS011;64590;48.81286795;9.14184224;2023-02-15T00:59:09;53.05;;;24.98;;
215;SDS011;64590;48.81286795;9.14184224;2023-02-15T01:01:36;55.10;;;25.33;;
215;SDS011;64590;48.81286795;9.14184224;2023-02-15T01:04:03;54.42;;;25.42;;
215;SDS011;64590;48.81286795;9.14184224;2023-02-15T01:06:31;53.03;;;24.15;;
215;SDS011;64590;48.81286795;9.14184224;2023-02-15T01:08:57;54.00;;;24.60;;
215;SDS011;64590;48.81286795;9.14184224;2023-02-15T01:11:24;50.20;;;23.88;;
215;SDS011;64590;48.81286795;9.14184224;2023-02-15T01:13:51;49.97;;;24.45;;
215;SDS011;64590;48.81286795;9.14184224;2023-02-15T01:16:20;53.83;;;24.58;;
215;SDS011;64590;48.81286795;9.14184224;2023-02-15T01:18:48;51.92;;;25.10;;
215;SDS011;64590;48.81286795;9.14184224;2023-02-15T01:21:16;54.15;;;25.15;;
215;SDS011;64590;48.81286795;9.14184224;2023-02-15T01:23:46;46.20;;;22.95;;
215;SDS011;64590;48.81286795;9.14184224;2023-02-15T01:26:13;48.72;;;23.27;;
215;SDS011;64590;48.81286795;9.14184224;2023-02-15T01:28:42;50.05;;;24.52;;
215;SDS011;64590;48.81286795;9.14184224;2023-02-15T01:31:09;52.08;;;24.40;;
215;SDS011;64590;48.81286795;9.14184224;2023-02-15T01:33:37;51.80;;;25.00;;
215;SDS011;64590;48.81286795;9.14184224;2023-02-15T01:36:04;53.13;;;24.40;;
215;SDS011;64590;48.81286795;9.14184224;2023-02-15T01:38:32;59.38;;;25.55;;
215;SDS011;64590;48.81286795;9.14184224;2023-02-15T01:41:00;55.20;;;25.17;;
215;SDS011;64590;48.81286795;9.14184224;2023-02-15T01:43:41;54.67;;;24.88;;
215;SDS011;64590;48.81286795;9.14184224;2023-02-15T01:46:10;49.00;;;23.88;;
215;SDS011;64590;48.81286795;9.14184224;2023-02-15T01:48:39;55.83;;;25.27;;
215;SDS011;64590;48.81286795;9.14184224;2023-02-15T01:51:11;56.30;;;25.60;;
215;SDS011;64590;48.81286795;9.14184224;2023-02-15T01:53:40;55.20;;;25.55;;
215;SDS011;64590;48.81286795;9.14184224;2023-02-15T01:56:13;52.88;;;25.08;;
215;SDS011;64590;48.81286795;9.14184224;2023-02-15T01:58:47;55.38;;;25.80;;
215;SDS011;64590;48.81286795;9.14184224;2023-02-15T02:01:16;58.13;;;25.77;;
215;SDS011;64590;48.81286795;9.14184224;2023-02-15T02:03:46;56.63;;;25.95;;
215;SDS011;64590;48.81286795;9.14184224;2023-02-15T02:06:20;55.28;;;25.63;;
215;SDS011;64590;48.81286795;9.14184224;2023-02-15T02:08:47;53.13;;;24.75;;
215;SDS011;64590;48.81286795;9.14184224;2023-02-15T02:11:16;56.90;;;25.80;;
215;SDS011;64590;48.81286795;9.14184224;2023-02-15T02:13:45;50.78;;;24.50;;
215;SDS011;64590;48.81286795;9.14184224;2023-02-15T02:16:13;58.90;;;26.23;;
215;SDS011;64590;48.81286795;9.14184224;2023-02-15T02:18:48;57.33;;;25.02;;
215;SDS011;64590;48.81286795;9.14184224;2023-02-15T02:21:37;55.10;;;26.40;;
215;SDS011;64590;48.81286795;9.14184224;2023-02-15T02:24:33;57.42;;;25.88;;
215;SDS011;64590;48.81286795;9.14184224;2023-02-15T02:27:22;56.60;;;26.15;;
215;SDS011;64590;48.81286795;9.14184224;2023-02-15T02:30:04;54.03;;;24.80;;
215;SDS011;64590;48.81286795;9.14184224;2023-02-15T02:32:51;52.40;;;24.88;;
215;SDS011;64590;48.81286795;9.14184224;2023-02-15T02:35:27;53.50;;;24.67;;
215;SDS011;64590;48.81286795;9.14184224;2023-02-15T02:38:01;54.60;;;25.02;;
215;SDS011;64590;48.81286795;9.14184224;2023-02-15T02:40:37;53.72;;;24.50;;
215;SDS011;64590;48.81286795;9.14184224;2023-02-15T02:43:15;49.42;;;24.38;;
215;SDS011;64590;48.81286795;9.14184224;2023-02-15T02:45:48;52.58;;;24.90;;
215;SDS011;64590;48.81286795;9.14184224;2023-02-15T02:48:21;58.88;;;25.77;;
215;SDS011;64590;48.81286795;9.14184224;2023-02-15T02:50:51;56.25;;;26.15;;
215;SDS011;64590;48.81286795;9.14184224;2023-02-15T02:53:18;62.88;;;27.13;;
215;SDS011;64590;48.81286795;9.14184224;2023-02-15T02:55:46;63.83;;;27.85;;
215;SDS011;64590;48.81286795;9.14184224;2023-02-15T02:58:18;61.80;;;27.42;;
215;SDS011;64590;48.81286795;9.14184224;2023-02-15T03:00:50;72.40;;;27.98;;
215;SDS011;64590;48.81286795;9.14184224;2023-02-15T03:03:23;64.50;;;28.55;;
215;SDS011;64590;48.81286795;9.14184224;2023-02-15T03:05:54;60.67;;;26.73;;
215;SDS011;64590;48.81286795;9.14184224;2023-02-15T03:08:25;64.43;;;27.98;;
215;SDS011;64590;48.81286795;9.14184224;2023-02-15T03:10:56;64.95;;;29.30;;
215;SDS011;64590;48.81286795;9.14184224;2023-02-15T03:13:25;63.20;;;28.73;;
215;SDS011;64590;48.81286795;9.14184224;2023-02-15T03:15:53;62.38;;;28.17;;
215;SDS011;64590;48.81286795;9.14184224;2023-02-15T03:18:42;61.75;;;27.95;;
215;SDS011;64590;48.81286795;9.14184224;2023-02-15T03:21:20;67.75;;;28.77;;
215;SDS011;64590;48.81286795;9.14184224;2023-02-15T03:23:51;93.85;;;27.48;;
215;SDS011;64590;48.81286795;9.14184224;2023-02-15T03:26:23;65.53;;;26.27;;
215;SDS011;64590;48.81286795;9.14184224;2023-02-15T03:28:52;102.05;;;28.13;;
215;SDS011;64590;48.81286795;9.14184224;2023-02-15T03:31:21;71.07;;;27.08;;
215;SDS011;64590;48.81286795;9.14184224;2023-02-15T03:33:56;87.10;;;27.50;;
215;SDS011;64590;48.81286795;9.14184224;2023-02-15T03:36:27;105.28;;;28.05;;
215;SDS011;64590;48.81286795;9.14184224;2023-02-15T03:38:58;102.20;;;27.75;;
215;SDS011;64590;48.81286795;9.14184224;2023-02-15T03:41:29;188.45;;;29.27;;
215;SDS011;64590;48.81286795;9.14184224;2023-02-15T03:44:00;246.93;;;30.02;;
215;SDS011;64590;48.81286795;9.14184224;2023-02-15T03:46:32;236.85;;;30.23;;
215;SDS011;64590;48.81286795;9.14184224;2023-02-15T03:49:05;166.27;;;29.27;;
215;SDS011;64590;48.81286795;9.14184224;2023-02-15T03:51:36;105.10;;;28.70;;
215;SDS011;64590;48.81286795;9.14184224;2023-02-15T03:54:07;114.70;;;29.00;;
215;SDS011;64590;48.81286795;9.14184224;2023-02-15T03:56:36;100.70;;;29.02;;
215;SDS011;64590;48.81286795;9.14184224;2023-02-15T03:59:04;106.65;;;29.02;;
215;SDS011;64590;48.81286795;9.14184224;2023-02-15T04:01:52;137.20;;;28.35;;
215;SDS011;64590;48.81286795;9.14184224;2023-02-15T04:04:35;195.82;;;31.15;;
215;SDS011;64590;48.81286795;9.14184224;2023-02-15T04:07:04;132.88;;;28.88;;
215;SDS011;64590;48.81286795;9.14184224;2023-02-15T04:09:32;189.75;;;30.00;;
215;SDS011;64590;48.81286795;9.14184224;2023-02-15T04:12:16;401.52;;;32.30;;
215;SDS011;64590;48.81286795;9.14184224;2023-02-15T04:14:43;128.65;;;28.55;;
215;SDS011;64590;48.81286795;9.14184224;2023-02-15T04:17:28;223.70;;;28.83;;
215;SDS011;64590;48.81286795;9.14184224;2023-02-15T04:19:56;215.45;;;30.95;;
215;SDS011;64590;48.81286795;9.14184224;2023-02-15T04:22:40;222.40;;;29.75;;
215;SDS011;64590;48.81286795;9.14184224;2023-02-15T04:25:25;224.10;;;29.95;;
215;SDS011;64590;48.81286795;9.14184224;2023-02-15T04:27:52;93.20;;;28.58;;
215;SDS011;64590;48.81286795;9.14184224;2023-02-15T04:30:20;109.45;;;27.10;;
215;SDS011;64590;48.81286795;9.14184224;2023-02-15T04:32:48;177.50;;;28.00;;
215;SDS011;64590;48.81286795;9.14184224;2023-02-15T04:35:16;116.72;;;28.08;;
215;SDS011;64590;48.81286795;9.14184224;2023-02-15T04:37:43;174.65;;;28.30;;
215;SDS011;64590;48.81286795;9.14184224;2023-02-15T04:40:11;158.23;;;26.23;;
215;SDS011;64590;48.81286795;9.14184224;2023-02-15T04:42:39;381.08;;;32.88;;
215;SDS011;64590;48.81286795;9.14184224;2023-02-15T04:45:06;223.45;;;29.40;;
215;SDS011;64590;48.81286795;9.14184224;2023-02-15T04:47:33;296.70;;;31.90;;
215;SDS011;64590;48.81286795;9.14184224;2023-02-15T04:50:00;189.30;;;29.30;;
215;SDS011;64590;48.81286795;9.14184224;2023-02-15T04:52:28;128.00;;;29.15;;
215;SDS011;64590;48.81286795;9.14184224;2023-02-15T04:54:54;232.57;;;30.52;;
215;SDS011;64590;48.81286795;9.14184224;2023-02-15T04:57:21;193.23;;;30.60;;
215;SDS011;64590;48.81286795;9.14184224;2023-02-15T04:59:48;109.60;;;30.17;;
215;SDS011;64590;48.81286795;9.14184224;2023-02-15T05:02:14;149.80;;;29.20;;
215;SDS011;64590;48.81286795;9.14184224;2023-02-15T05:04:41;229.13;;;30.35;;
215;SDS011;64590;48.81286795;9.14184224;2023-02-15T05:07:07;128.32;;;28.90;;
215;SDS011;64590;48.81286795;9.14184224;2023-02-15T05:09:35;262.05;;;28.95;;
215;SDS011;64590;48.81286795;9.14184224;2023-02-15T05:12:02;305.77;;;29.65;;
215;SDS011;64590;48.81286795;9.14184224;2023-02-15T05:14:28;233.38;;;27.88;;
215;SDS011;64590;48.81286795;9.14184224;2023-02-15T05:16:55;205.65;;;29.58;;
215;SDS011;64590;48.81286795;9.14184224;2023-02-15T05:19:23;236.07;;;29.10;;
215;SDS011;64590;48.81286795;9.14184224;2023-02-15T05:21:50;154.75;;;29.63;;
215;SDS011;64590;48.81286795;9.14184224;2023-02-15T05:24:16;123.85;;;28.23;;
215;SDS011;64590;48.81286795;9.14184224;2023-02-15T05:27:02;79.78;;;27.80;;
215;SDS011;64590;48.81286795;9.14184224;2023-02-15T05:29:46;79.80;;;27.52;;
215;SDS011;64590;48.81286795;9.14184224;2023-02-15T05:32:13;135.18;;;27.15;;
215;SDS011;64590;48.81286795;9.14184224;2023-02-15T05:34:40;72.75;;;25.70;;
215;SDS011;64590;48.81286795;9.14184224;2023-02-15T05:37:06;103.35;;;27.25;;
215;SDS011;64590;48.81286795;9.14184224;2023-02-15T05:39:33;69.15;;;26.67;;
215;SDS011;64590;48.81286795;9.14184224;2023-02-15T05:42:01;75.88;;;26.00;;
215;SDS011;64590;48.81286795;9.14184224;2023-02-15T05:44:28;69.18;;;25.25;;
215;SDS011;64590;48.81286795;9.14184224;2023-02-15T05:46:55;137.40;;;28.27;;
215;SDS011;64590;48.81286795;9.14184224;2023-02-15T05:49:21;97.32;;;25.10;;
215;SDS011;64590;48.81286795;9.14184224;2023-02-15T05:51:48;124.20;;;26.02;;
215;SDS011;64590;48.81286795;9.14184224;2023-02-15T05:54:14;135.10;;;26.75;;
215;SDS011;64590;48.81286795;9.14184224;2023-02-15T05:56:41;103.13;;;26.88;;
215;SDS011;64590;48.81286795;9.14184224;2023-02-15T05:59:09;88.50;;;26.80;;
215;SDS011;64590;48.81286795;9.14184224;2023-02-15T06:01:35;77.47;;;26.55;;
215;SDS011;64590;48.81286795;9.14184224;2023-02-15T06:04:02;81.10;;;29.65;;
215;SDS011;64590;48.81286795;9.14184224;2023-02-15T06:06:29;70.38;;;28.40;;
215;SDS011;64590;48.81286795;9.14184224;2023-02-15T06:08:55;87.20;;;27.38;;
215;SDS011;64590;48.81286795;9.14184224;2023-02-15T06:11:22;162.52;;;30.48;;
215;SDS011;64590;48.81286795;9.14184224;2023-02-15T06:13:48;118.22;;;27.88;;
215;SDS011;64590;48.81286795;9.14184224;2023-02-15T06:16:16;133.32;;;28.05;;
215;SDS011;64590;48.81286795;9.14184224;2023-02-15T06:18:42;130.00;;;26.65;;
215;SDS011;64590;48.81286795;9.14184224;2023-02-15T06:21:09;103.60;;;26.23;;
215;SDS011;64590;48.81286795;9.14184224;2023-02-15T06:23:36;156.35;;;28.92;;
215;SDS011;64590;48.81286795;9.14184224;2023-02-15T06:26:03;115.57;;;28.30;;
215;SDS011;64590;48.81286795;9.14184224;2023-02-15T06:28:29;105.72;;;26.55;;
215;SDS011;64590;48.81286795;9.14184224;2023-02-15T06:30:56;104.10;;;27.05;;
215;SDS011;64590;48.81286795;9.14184224;2023-02-15T06:33:24;107.50;;;25.10;;
215;SDS011;64590;48.81286795;9.14184224;2023-02-15T06:35:50;119.60;;;26.50;;
215;SDS011;64590;48.81286795;9.14184224;2023-02-15T06:41:16;145.93;;;28.05;;
215;SDS011;64590;48.81286795;9.14184224;2023-02-15T06:43:43;209.98;;;28.65;;
215;SDS011;64590;48.81286795;9.14184224;2023-02-15T06:46:09;87.50;;;26.80;;
215;SDS011;64590;48.81286795;9.14184224;2023-02-15T06:48:37;153.43;;;27.73;;
215;SDS011;64590;48.81286795;9.14184224;2023-02-15T06:51:04;240.48;;;29.40;;
215;SDS011;64590;48.81286795;9.14184224;2023-02-15T06:53:30;130.68;;;26.65;;
215;SDS011;64590;48.81286795;9.14184224;2023-02-15T06:55:59;265.02;;;28.05;;
215;SDS011;64590;48.81286795;9.14184224;2023-02-15T06:58:27;190.60;;;27.55;;
215;SDS011;64590;48.81286795;9.14184224;2023-02-15T07:00:54;114.03;;;28.02;;
215;SDS011;64590;48.81286795;9.14184224;2023-02-15T07:03:20;213.98;;;28.05;;
215;SDS011;64590;48.81286795;9.14184224;2023-02-15T07:05:48;177.02;;;28.40;;
215;SDS011;64590;48.81286795;9.14184224;2023-02-15T07:08:15;110.10;;;26.70;;
215;SDS011;64590;48.81286795;9.14184224;2023-02-15T07:10:43;128.77;;;27.17;;
215;SDS011;64590;48.81286795;9.14184224;2023-02-15T07:13:10;134.23;;;25.23;;
215;SDS011;64590;48.81286795;9.14184224;2023-02-15T07:15:35;268.63;;;26.47;;
215;SDS011;64590;48.81286795;9.14184224;2023-02-15T07:18:02;84.95;;;26.10;;
215;SDS011;64590;48.81286795;9.14184224;2023-02-15T07:20:30;68.22;;;26.35;;
215;SDS011;64590;48.81286795;9.14184224;2023-02-15T07:22:59;59.92;;;25.38;;
215;SDS011;64590;48.81286795;9.14184224;2023-02-15T07:25:26;49.72;;;23.70;;
215;SDS011;64590;48.81286795;9.14184224;2023-02-15T07:27:55;58.50;;;25.70;;
215;SDS011;64590;48.81286795;9.14184224;2023-02-15T07:30:22;59.38;;;25.52;;
215;SDS011;64590;48.81286795;9.14184224;2023-02-15T07:32:48;69.85;;;26.05;;
215;SDS011;64590;48.81286795;9.14184224;2023-02-15T07:35:33;181.40;;;31.63;;
215;SDS011;64590;48.81286795;9.14184224;2023-02-15T07:38:01;67.43;;;28.85;;
215;SDS011;64590;48.81286795;9.14184224;2023-02-15T07:40:27;84.47;;;26.58;;
215;SDS011;64590;48.81286795;9.14184224;2023-02-15T07:42:56;160.00;;;28.75;;
215;SDS011;64590;48.81286795;9.14184224;2023-02-15T07:45:24;103.55;;;28.13;;
215;SDS011;64590;48.81286795;9.14184224;2023-02-15T07:47:50;74.97;;;27.02;;
215;SDS011;64590;48.81286795;9.14184224;2023-02-15T07:50:17;71.15;;;26.50;;
215;SDS011;64590;48.81286795;9.14184224;2023-02-15T07:52:44;87.57;;;26.17;;
215;SDS011;64590;48.81286795;9.14184224;2023-02-15T07:55:12;95.30;;;26.20;;
215;SDS011;64590;48.81286795;9.14184224;2023-02-15T07:57:41;256.10;;;29.02;;
215;SDS011;64590;48.81286795;9.14184224;2023-02-15T08:00:09;70.82;;;26.35;;
215;SDS011;64590;48.81286795;9.14184224;2023-02-15T08:02:37;113.00;;;27.20;;
215;SDS011;64590;48.81286795;9.14184224;2023-02-15T08:05:04;74.05;;;26.58;;
215;SDS011;64590;48.81286795;9.14184224;2023-02-15T08:07:31;73.95;;;26.73;;
215;SDS011;64590;48.81286795;9.14184224;2023-02-15T08:09:58;98.88;;;28.15;;
215;SDS011;64590;48.81286795;9.14184224;2023-02-15T08:12:26;60.50;;;26.35;;
215;SDS011;64590;48.81286795;9.14184224;2023-02-15T08:14:53;62.88;;;26.23;;
215;SDS011;64590;48.81286795;9.14184224;2023-02-15T08:17:20;78.65;;;27.67;;
215;SDS011;64590;48.81286795;9.14184224;2023-02-15T08:19:47;86.72;;;26.40;;
215;SDS011;64590;48.81286795;9.14184224;2023-02-15T08:22:13;104.97;;;27.80;;
215;SDS011;64590;48.81286795;9.14184224;2023-02-15T08:24:40;94.45;;;28.75;;
215;SDS011;64590;48.81286795;9.14184224;2023-02-15T08:27:08;84.72;;;28.52;;
215;SDS011;64590;48.81286795;9.14184224;2023-02-15T08:29:37;70.05;;;27.20;;
215;SDS011;64590;48.81286795;9.14184224;2023-02-15T08:32:06;81.50;;;28.98;;
215;SDS011;64590;48.81286795;9.14184224;2023-02-15T08:34:36;101.65;;;28.58;;
215;SDS011;64590;48.81286795;9.14184224;2023-02-15T08:37:04;69.50;;;28.27;;
215;SDS011;64590;48.81286795;9.14184224;2023-02-15T08:39:31;86.65;;;29.17;;
215;SDS011;64590;48.81286795;9.14184224;2023-02-15T08:41:58;157.18;;;29.10;;
215;SDS011;64590;48.81286795;9.14184224;2023-02-15T08:44:24;169.88;;;28.58;;
215;SDS011;64590;48.81286795;9.14184224;2023-02-15T08:46:52;80.05;;;27.70;;
215;SDS011;64590;48.81286795;9.14184224;2023-02-15T08:49:20;143.48;;;29.33;;
215;SDS011;64590;48.81286795;9.14184224;2023-02-15T08:51:48;100.90;;;28.77;;
215;SDS011;64590;48.81286795;9.14184224;2023-02-15T08:54:16;78.78;;;27.60;;
215;SDS011;64590;48.81286795;9.14184224;2023-02-15T08:56:44;56.63;;;25.75;;
215;SDS011;64590;48.81286795;9.14184224;2023-02-15T08:59:12;76.38;;;28.08;;
215;SDS011;64590;48.81286795;9.14184224;2023-02-15T09:01:40;68.47;;;27.42;;
215;SDS011;64590;48.81286795;9.14184224;2023-02-15T09:04:08;94.93;;;27.15;;
215;SDS011;64590;48.81286795;9.14184224;2023-02-15T09:06:35;95.45;;;26.95;;
215;SDS011;64590;48.81286795;9.14184224;2023-02-15T09:09:02;62.95;;;26.50;;
215;SDS011;64590;48.81286795;9.14184224;2023-02-15T09:11:30;56.08;;;26.60;;
215;SDS011;64590;48.81286795;9.14184224;2023-02-15T09:14:00;68.40;;;29.55;;
215;SDS011;64590;48.81286795;9.14184224;2023-02-15T09:16:30;65.93;;;27.30;;
215;SDS011;64590;48.81286795;9.14184224;2023-02-15T09:18:58;58.95;;;28.98;;
215;SDS011;64590;48.81286795;9.14184224;2023-02-15T09:21:27;66.38;;;27.98;;
215;SDS011;64590;48.81286795;9.14184224;2023-02-15T09:23:55;63.85;;;29.88;;
215;SDS011;64590;48.81286795;9.14184224;2023-02-15T09:26:25;63.60;;;30.25;;
215;SDS011;64590;48.81286795;9.14184224;2023-02-15T09:28:54;65.60;;;29.15;;
215;SDS011;64590;48.81286795;9.14184224;2023-02-15T09:31:23;66.40;;;29.48;;
215;SDS011;64590;48.81286795;9.14184224;2023-02-15T09:33:51;65.38;;;29.10;;
215;SDS011;64590;48.81286795;9.14184224;2023-02-15T09:36:19;60.13;;;29.83;;
215;SDS011;64590;48.81286795;9.14184224;2023-02-15T09:38:52;69.13;;;31.77;;
215;SDS011;64590;48.81286795;9.14184224;2023-02-15T09:41:28;80.38;;;32.22;;
215;SDS011;64590;48.81286795;9.14184224;2023-02-15T09:44:11;76.45;;;34.50;;
215;SDS011;64590;48.81286795;9.14184224;2023-02-15T09:46:47;76.70;;;33.50;;
215;SDS011;64590;48.81286795;9.14184224;2023-02-15T09:49:31;79.05;;;34.35;;
215;SDS011;64590;48.81286795;9.14184224;2023-02-15T09:52:28;73.25;;;32.70;;
215;SDS011;64590;48.81286795;9.14184224;2023-02-15T09:55:24;69.25;;;31.60;;
215;SDS011;64590;48.81286795;9.14184224;2023-02-15T09:58:05;71.05;;;32.85;;
215;SDS011;64590;48.81286795;9.14184224;2023-02-15T10:00:39;68.00;;;32.58;;
215;SDS011;64590;48.81286795;9.14184224;2023-02-15T10:03:18;62.92;;;31.90;;
215;SDS011;64590;48.81286795;9.14184224;2023-02-15T10:06:02;67.90;;;31.80;;
215;SDS011;64590;48.81286795;9.14184224;2023-02-15T10:09:00;64.90;;;31.50;;
215;SDS011;64590;48.81286795;9.14184224;2023-02-15T10:11:39;67.65;;;31.85;;
215;SDS011;64590;48.81286795;9.14184224;2023-02-15T10:14:28;65.57;;;29.58;;
215;SDS011;64590;48.81286795;9.14184224;2023-02-15T10:17:09;62.20;;;30.75;;
215;SDS011;64590;48.81286795;9.14184224;2023-02-15T10:19:46;61.70;;;29.65;;
215;SDS011;64590;48.81286795;9.14184224;2023-02-15T10:22:25;63.72;;;30.50;;
215;SDS011;64590;48.81286795;9.14184224;2023-02-15T10:25:15;61.97;;;30.80;;
215;SDS011;64590;48.81286795;9.14184224;2023-02-15T10:27:56;63.58;;;31.27;;
215;SDS011;64590;48.81286795;9.14184224;2023-02-15T10:30:31;62.40;;;30.90;;
215;SDS011;64590;48.81286795;9.14184224;2023-02-15T10:33:08;64.55;;;30.50;;
215;SDS011;64590;48.81286795;9.14184224;2023-02-15T10:35:47;74.35;;;31.80;;
215;SDS011;64590;48.81286795;9.14184224;2023-02-15T10:38:20;60.88;;;30.20;;
215;SDS011;64590;48.81286795;9.14184224;2023-02-15T10:41:00;62.42;;;31.20;;
215;SDS011;64590;48.81286795;9.14184224;2023-02-15T10:43:48;65.55;;;29.38;;
215;SDS011;64590;48.81286795;9.14184224;2023-02-15T10:46:33;68.85;;;30.00;;
215;SDS011;64590;48.81286795;9.14184224;2023-02-15T10:49:33;67.18;;;29.95;;
215;SDS011;64590;48.81286795;9.14184224;2023-02-15T10:52:15;63.55;;;30.23;;
215;SDS011;64590;48.81286795;9.14184224;2023-02-15T10:54:53;63.47;;;29.45;;
215;SDS011;64590;48.81286795;9.14184224;2023-02-15T10:57:30;65.72;;;31.40;;
215;SDS011;64590;48.81286795;9.14184224;2023-02-15T11:00:09;67.05;;;31.23;;
215;SDS011;64590;48.81286795;9.14184224;2023-02-15T11:02:49;70.75;;;33.35;;
215;SDS011;64590;48.81286795;9.14184224;2023-02-15T11:05:31;63.65;;;31.95;;
215;SDS011;64590;48.81286795;9.14184224;2023-02-15T11:08:06;64.32;;;32.05;;
215;SDS011;64590;48.81286795;9.14184224;2023-02-15T11:10:36;62.28;;;31.17;;
215;SDS011;64590;48.81286795;9.14184224;2023-02-15T11:13:08;63.55;;;30.55;;
215;SDS011;64590;48.81286795;9.14184224;2023-02-15T11:15:40;67.03;;;31.90;;
215;SDS011;64590;48.81286795;9.14184224;2023-02-15T11:18:11;73.63;;;32.10;;
215;SDS011;64590;48.81286795;9.14184224;2023-02-15T11:20:42;66.03;;;33.85;;
215;SDS011;64590;48.81286795;9.14184224;2023-02-15T11:23:17;73.38;;;35.28;;
215;SDS011;64590;48.81286795;9.14184224;2023-02-15T11:25:45;84.03;;;35.00;;
215;SDS011;64590;48.81286795;9.14184224;2023-02-15T11:28:17;67.00;;;33.10;;
215;SDS011;64590;48.81286795;9.14184224;2023-02-15T11:30:50;63.10;;;33.13;;
215;SDS011;64590;48.81286795;9.14184224;2023-02-15T11:33:20;71.32;;;34.92;;
215;SDS011;64590;48.81286795;9.14184224;2023-02-15T11:35:51;72.10;;;34.25;;
215;SDS011;64590;48.81286795;9.14184224;2023-02-15T11:38:26;68.53;;;35.35;;
215;SDS011;64590;48.81286795;9.14184224;2023-02-15T11:40:59;69.15;;;34.25;;
215;SDS011;64590;48.81286795;9.14184224;2023-02-15T11:43:31;68.78;;;33.55;;
215;SDS011;64590;48.81286795;9.14184224;2023-02-15T11:46:03;76.93;;;34.47;;
215;SDS011;64590;48.81286795;9.14184224;2023-02-15T11:48:31;66.88;;;33.30;;
215;SDS011;64590;48.81286795;9.14184224;2023-02-15T11:50:58;70.72;;;34.97;;
215;SDS011;64590;48.81286795;9.14184224;2023-02-15T11:53:26;78.15;;;33.20;;
215;SDS011;64590;48.81286795;9.14184224;2023-02-15T11:55:58;79.88;;;33.63;;
215;SDS011;64590;48.81286795;9.14184224;2023-02-15T11:58:28;71.68;;;33.15;;
215;SDS011;64590;48.81286795;9.14184224;2023-02-15T12:01:00;61.28;;;32.97;;
215;SDS011;64590;48.81286795;9.14184224;2023-02-15T12:03:39;71.63;;;32.03;;
215;SDS011;64590;48.81286795;9.14184224;2023-02-15T12:06:12;71.53;;;32.05;;
215;SDS011;64590;48.81286795;9.14184224;2023-02-15T12:08:48;62.75;;;31.98;;
215;SDS011;64590;48.81286795;9.14184224;2023-02-15T12:11:20;61.47;;;31.83;;
215;SDS011;64590;48.81286795;9.14184224;2023-02-15T12:13:55;62.57;;;33.00;;
215;SDS011;64590;48.81286795;9.14184224;2023-02-15T12:16:25;60.13;;;31.67;;
215;SDS011;64590;48.81286795;9.14184224;2023-02-15T12:18:53;63.80;;;30.77;;
215;SDS011;64590;48.81286795;9.14184224;2023-02-15T12:21:27;58.33;;;31.30;;
215;SDS011;64590;48.81286795;9.14184224;2023-02-15T12:23:57;60.37;;;30.77;;
215;SDS011;64590;48.81286795;9.14184224;2023-02-15T12:26:28;57.73;;;31.43;;
215;SDS011;64590;48.81286795;9.14184224;2023-02-15T12:28:57;61.13;;;31.40;;
215;SDS011;64590;48.81286795;9.14184224;2023-02-15T12:31:30;58.60;;;31.37;;
215;SDS011;64590;48.81286795;9.14184224;2023-02-15T12:34:00;59.00;;;32.20;;
215;SDS011;64590;48.81286795;9.14184224;2023-02-15T12:36:32;57.53;;;31.13;;
215;SDS011;64590;48.81286795;9.14184224;2023-02-15T12:39:20;58.47;;;30.73;;
215;SDS011;64590;48.81286795;9.14184224;2023-02-15T12:41:58;57.67;;;29.73;;
215;SDS011;64590;48.81286795;9.14184224;2023-02-15T12:44:28;58.70;;;30.13;;
215;SDS011;64590;48.81286795;9.14184224;2023-02-15T12:46:59;54.07;;;30.00;;
215;SDS011;64590;48.81286795;9.14184224;2023-02-15T12:49:27;56.47;;;30.97;;
215;SDS011;64590;48.81286795;9.14184224;2023-02-15T12:51:55;56.10;;;31.43;;
215;SDS011;64590;48.81286795;9.14184224;2023-02-15T12:54:31;57.03;;;31.57;;
215;SDS011;64590;48.81286795;9.14184224;2023-02-15T12:59:55;59.67;;;31.27;;
215;SDS011;64590;48.81286795;9.14184224;2023-02-15T13:02:27;54.20;;;30.37;;
215;SDS011;64590;48.81286795;9.14184224;2023-02-15T13:04:58;59.27;;;31.60;;
215;SDS011;64590;48.81286795;9.14184224;2023-02-15T13:07:34;60.97;;;32.13;;
215;SDS011;64590;48.81286795;9.14184224;2023-02-15T13:10:00;58.73;;;33.13;;
215;SDS011;64590;48.81286795;9.14184224;2023-02-15T13:12:27;61.83;;;33.73;;